RKSI/ICN METAR and TAF weather

Enter ICAO airport designator
Station Type Date Time Source
RKSI METAR 2022/12/04 11:30 UTC NOAA

RKSI 041130Z 35009KT CAVOK M03/M14 Q1033 NOSIG


Station Type Date Time Source
RKSI Decoded METAR 2022/12/04 11:30 UTC NOAA

Incheon International Airport, Korea, South (RKSI) 37-28N 126-27E
Dec 04, 2022 - 06:30 AM EST / 2022.12.04 1130 UTC
Wind: from the N (350 degrees) at 10 MPH (9 KT):0
Visibility: greater than 7 mile(s):0
Temperature: 26 F (-3 C)
Windchill: 15 F (-9 C):1
Dew Point: 6 F (-14 C)
Relative Humidity: 42%
Pressure (altimeter): 30.50 in. Hg (1033 hPa)
ob: RKSI 041130Z 35009KT CAVOK M03/M14 Q1033 NOSIG
cycle: 11

Station Type Date Time Source
RKSI TAF 2022/12/04 12:06 UTC NOAA

TAF RKSI 041100Z 0412/0518 35010KT CAVOK TNM05/0421Z TX02/0505Z
BECMG 0507/0509 29007KT
BECMG 0510/0512 12005KT
BECMG 0513/0515 06006KT 9999 FEW015 BKN035

Example: see airport list